sensor_id;sensor_type;location;lat;lon;timestamp;temperature;humidity
34985;DHT22;21190;58.750;17.004;2024-03-02T00:00:49;3.70;99.90
34985;DHT22;21190;58.750;17.004;2024-03-02T00:03:17;3.60;99.90
34985;DHT22;21190;58.750;17.004;2024-03-02T00:05:49;3.70;99.90
34985;DHT22;21190;58.750;17.004;2024-03-02T00:08:23;3.70;99.90
34985;DHT22;21190;58.750;17.004;2024-03-02T00:10:51;3.70;99.90
34985;DHT22;21190;58.750;17.004;2024-03-02T00:13:21;3.70;99.90
34985;DHT22;21190;58.750;17.004;2024-03-02T00:15:55;3.70;99.90
34985;DHT22;21190;58.750;17.004;2024-03-02T00:18:30;3.70;99.90
34985;DHT22;21190;58.750;17.004;2024-03-02T00:20:58;3.70;99.90
34985;DHT22;21190;58.750;17.004;2024-03-02T00:23:29;3.70;99.90
34985;DHT22;21190;58.750;17.004;2024-03-02T00:25:58;3.70;99.90
34985;DHT22;21190;58.750;17.004;2024-03-02T00:28:31;3.70;99.90
34985;DHT22;21190;58.750;17.004;2024-03-02T00:31:09;3.70;99.90
34985;DHT22;21190;58.750;17.004;2024-03-02T00:33:45;3.80;99.90
34985;DHT22;21190;58.750;17.004;2024-03-02T00:36:21;3.80;99.90
34985;DHT22;21190;58.750;17.004;2024-03-02T00:38:53;3.80;99.90
34985;DHT22;21190;58.750;17.004;2024-03-02T00:41:41;3.80;99.90
34985;DHT22;21190;58.750;17.004;2024-03-02T00:44:15;3.90;99.90
34985;DHT22;21190;58.750;17.004;2024-03-02T00:46:43;3.90;99.90
34985;DHT22;21190;58.750;17.004;2024-03-02T00:49:21;3.90;99.90
34985;DHT22;21190;58.750;17.004;2024-03-02T00:51:52;3.90;99.90
34985;DHT22;21190;58.750;17.004;2024-03-02T00:54:27;4.00;99.90
34985;DHT22;21190;58.750;17.004;2024-03-02T00:56:56;4.00;99.90
34985;DHT22;21190;58.750;17.004;2024-03-02T00:59:24;3.90;99.90
34985;DHT22;21190;58.750;17.004;2024-03-02T01:01:51;3.90;99.90
34985;DHT22;21190;58.750;17.004;2024-03-02T01:04:19;3.90;99.90
34985;DHT22;21190;58.750;17.004;2024-03-02T01:06:46;3.90;99.90
34985;DHT22;21190;58.750;17.004;2024-03-02T01:09:14;4.00;99.90
34985;DHT22;21190;58.750;17.004;2024-03-02T01:11:46;4.00;99.90
34985;DHT22;21190;58.750;17.004;2024-03-02T01:14:13;3.90;99.90
34985;DHT22;21190;58.750;17.004;2024-03-02T01:16:41;4.00;99.90
34985;DHT22;21190;58.750;17.004;2024-03-02T01:19:09;3.90;99.90
34985;DHT22;21190;58.750;17.004;2024-03-02T01:21:37;3.90;99.90
34985;DHT22;21190;58.750;17.004;2024-03-02T01:24:04;3.90;99.90
34985;DHT22;21190;58.750;17.004;2024-03-02T01:26:31;3.90;99.90
34985;DHT22;21190;58.750;17.004;2024-03-02T01:28:58;3.90;99.90
34985;DHT22;21190;58.750;17.004;2024-03-02T01:31:26;3.90;99.90
34985;DHT22;21190;58.750;17.004;2024-03-02T01:33:53;3.90;99.90
34985;DHT22;21190;58.750;17.004;2024-03-02T01:36:20;3.90;99.90
34985;DHT22;21190;58.750;17.004;2024-03-02T01:38:47;3.90;99.90
34985;DHT22;21190;58.750;17.004;2024-03-02T01:41:14;3.90;99.90
34985;DHT22;21190;58.750;17.004;2024-03-02T01:43:42;3.90;99.90
34985;DHT22;21190;58.750;17.004;2024-03-02T01:46:09;4.00;99.90
34985;DHT22;21190;58.750;17.004;2024-03-02T01:48:36;4.00;99.90
34985;DHT22;21190;58.750;17.004;2024-03-02T01:51:04;4.00;99.90
34985;DHT22;21190;58.750;17.004;2024-03-02T01:53:34;4.00;99.90
34985;DHT22;21190;58.750;17.004;2024-03-02T01:56:01;3.90;99.90
34985;DHT22;21190;58.750;17.004;2024-03-02T01:58:28;3.90;99.90
34985;DHT22;21190;58.750;17.004;2024-03-02T02:00:55;4.00;99.90
34985;DHT22;21190;58.750;17.004;2024-03-02T02:03:23;3.90;99.90
34985;DHT22;21190;58.750;17.004;2024-03-02T02:05:50;3.90;99.90
34985;DHT22;21190;58.750;17.004;2024-03-02T02:08:17;3.90;99.90
34985;DHT22;21190;58.750;17.004;2024-03-02T02:10:44;3.90;99.90
34985;DHT22;21190;58.750;17.004;2024-03-02T02:13:14;3.80;99.90
34985;DHT22;21190;58.750;17.004;2024-03-02T02:15:41;3.80;99.90
34985;DHT22;21190;58.750;17.004;2024-03-02T02:18:09;3.80;99.90
34985;DHT22;21190;58.750;17.004;2024-03-02T02:20:36;3.70;99.90
34985;DHT22;21190;58.750;17.004;2024-03-02T02:23:04;3.80;99.90
34985;DHT22;21190;58.750;17.004;2024-03-02T02:25:32;3.70;99.90
34985;DHT22;21190;58.750;17.004;2024-03-02T02:27:59;3.70;99.90
34985;DHT22;21190;58.750;17.004;2024-03-02T02:30:30;3.70;99.90
34985;DHT22;21190;58.750;17.004;2024-03-02T02:32:58;3.60;99.90
34985;DHT22;21190;58.750;17.004;2024-03-02T02:35:26;3.60;99.90
34985;DHT22;21190;58.750;17.004;2024-03-02T02:37:55;3.60;99.90
34985;DHT22;21190;58.750;17.004;2024-03-02T02:40:22;3.50;99.90
34985;DHT22;21190;58.750;17.004;2024-03-02T02:42:50;3.40;99.90
34985;DHT22;21190;58.750;17.004;2024-03-02T02:45:21;3.40;99.90
34985;DHT22;21190;58.750;17.004;2024-03-02T02:47:48;3.40;99.90
34985;DHT22;21190;58.750;17.004;2024-03-02T02:50:16;3.40;99.90
34985;DHT22;21190;58.750;17.004;2024-03-02T02:52:43;3.30;99.90
34985;DHT22;21190;58.750;17.004;2024-03-02T02:55:12;3.30;99.90
34985;DHT22;21190;58.750;17.004;2024-03-02T02:57:41;3.30;99.90
34985;DHT22;21190;58.750;17.004;2024-03-02T03:00:15;3.30;99.90
34985;DHT22;21190;58.750;17.004;2024-03-02T03:02:49;3.30;99.90
34985;DHT22;21190;58.750;17.004;2024-03-02T03:05:18;3.20;99.90
34985;DHT22;21190;58.750;17.004;2024-03-02T03:07:45;3.20;99.90
34985;DHT22;21190;58.750;17.004;2024-03-02T03:10:16;3.20;99.90
34985;DHT22;21190;58.750;17.004;2024-03-02T03:12:44;3.20;99.90
34985;DHT22;21190;58.750;17.004;2024-03-02T03:15:11;3.20;99.90
34985;DHT22;21190;58.750;17.004;2024-03-02T03:17:39;3.10;99.90
34985;DHT22;21190;58.750;17.004;2024-03-02T03:20:07;3.10;99.90
34985;DHT22;21190;58.750;17.004;2024-03-02T03:22:38;3.10;99.90
34985;DHT22;21190;58.750;17.004;2024-03-02T03:25:06;3.10;99.90
34985;DHT22;21190;58.750;17.004;2024-03-02T03:27:35;3.10;99.90
34985;DHT22;21190;58.750;17.004;2024-03-02T03:30:03;3.10;99.90
34985;DHT22;21190;58.750;17.004;2024-03-02T03:32:30;3.10;99.90
34985;DHT22;21190;58.750;17.004;2024-03-02T03:34:57;3.10;99.90
34985;DHT22;21190;58.750;17.004;2024-03-02T03:37:25;3.10;99.90
34985;DHT22;21190;58.750;17.004;2024-03-02T03:39:54;3.10;99.90
34985;DHT22;21190;58.750;17.004;2024-03-02T03:42:21;3.10;99.90
34985;DHT22;21190;58.750;17.004;2024-03-02T03:44:49;3.10;99.90
34985;DHT22;21190;58.750;17.004;2024-03-02T03:47:16;3.00;99.90
34985;DHT22;21190;58.750;17.004;2024-03-02T03:49:43;3.00;99.90
34985;DHT22;21190;58.750;17.004;2024-03-02T03:52:11;3.10;99.90
34985;DHT22;21190;58.750;17.004;2024-03-02T03:54:38;3.10;99.90
34985;DHT22;21190;58.750;17.004;2024-03-02T03:57:05;3.10;99.90
34985;DHT22;21190;58.750;17.004;2024-03-02T03:59:33;3.10;99.90
34985;DHT22;21190;58.750;17.004;2024-03-02T04:02:00;3.00;99.90
34985;DHT22;21190;58.750;17.004;2024-03-02T04:04:27;3.00;99.90
34985;DHT22;21190;58.750;17.004;2024-03-02T04:06:54;3.10;99.90
34985;DHT22;21190;58.750;17.004;2024-03-02T04:09:22;3.10;99.90
34985;DHT22;21190;58.750;17.004;2024-03-02T04:11:49;3.10;99.90
34985;DHT22;21190;58.750;17.004;2024-03-02T04:14:16;3.00;99.90
34985;DHT22;21190;58.750;17.004;2024-03-02T04:16:43;3.00;99.90
34985;DHT22;21190;58.750;17.004;2024-03-02T04:19:10;3.00;99.90
34985;DHT22;21190;58.750;17.004;2024-03-02T04:21:37;3.00;99.90
34985;DHT22;21190;58.750;17.004;2024-03-02T04:24:05;3.00;99.90
34985;DHT22;21190;58.750;17.004;2024-03-02T04:26:32;3.00;99.90
34985;DHT22;21190;58.750;17.004;2024-03-02T04:29:00;3.00;99.90
34985;DHT22;21190;58.750;17.004;2024-03-02T04:31:27;3.00;99.90
34985;DHT22;21190;58.750;17.004;2024-03-02T04:33:54;3.00;99.90
34985;DHT22;21190;58.750;17.004;2024-03-02T04:36:22;3.00;99.90
34985;DHT22;21190;58.750;17.004;2024-03-02T04:38:49;3.00;99.90
34985;DHT22;21190;58.750;17.004;2024-03-02T04:41:16;3.00;99.90
34985;DHT22;21190;58.750;17.004;2024-03-02T04:43:44;2.90;99.90
34985;DHT22;21190;58.750;17.004;2024-03-02T04:46:11;2.90;99.90
34985;DHT22;21190;58.750;17.004;2024-03-02T04:48:38;2.90;99.90
34985;DHT22;21190;58.750;17.004;2024-03-02T04:51:05;2.90;99.90
34985;DHT22;21190;58.750;17.004;2024-03-02T04:53:32;2.90;99.90
34985;DHT22;21190;58.750;17.004;2024-03-02T04:55:59;2.90;99.90
34985;DHT22;21190;58.750;17.004;2024-03-02T04:58:35;2.90;99.90
34985;DHT22;21190;58.750;17.004;2024-03-02T05:01:02;2.90;99.90
34985;DHT22;21190;58.750;17.004;2024-03-02T05:03:30;2.90;99.90
34985;DHT22;21190;58.750;17.004;2024-03-02T05:05:57;2.90;99.90
34985;DHT22;21190;58.750;17.004;2024-03-02T05:08:24;2.90;99.90
34985;DHT22;21190;58.750;17.004;2024-03-02T05:10:51;2.90;99.90
34985;DHT22;21190;58.750;17.004;2024-03-02T05:13:18;2.90;99.90
34985;DHT22;21190;58.750;17.004;2024-03-02T05:15:47;2.90;99.90
34985;DHT22;21190;58.750;17.004;2024-03-02T05:18:15;2.90;99.90
34985;DHT22;21190;58.750;17.004;2024-03-02T05:20:42;2.90;99.90
34985;DHT22;21190;58.750;17.004;2024-03-02T05:23:09;2.90;99.90
34985;DHT22;21190;58.750;17.004;2024-03-02T05:25:37;2.90;99.90
34985;DHT22;21190;58.750;17.004;2024-03-02T05:28:04;2.90;99.90
34985;DHT22;21190;58.750;17.004;2024-03-02T05:30:31;2.80;99.90
34985;DHT22;21190;58.750;17.004;2024-03-02T05:32:59;2.90;99.90
34985;DHT22;21190;58.750;17.004;2024-03-02T05:35:26;2.90;99.90
34985;DHT22;21190;58.750;17.004;2024-03-02T05:37:53;2.90;99.90
34985;DHT22;21190;58.750;17.004;2024-03-02T05:40:20;2.90;99.90
34985;DHT22;21190;58.750;17.004;2024-03-02T05:42:50;2.90;99.90
34985;DHT22;21190;58.750;17.004;2024-03-02T05:45:17;2.90;99.90
34985;DHT22;21190;58.750;17.004;2024-03-02T05:47:45;2.90;99.90
34985;DHT22;21190;58.750;17.004;2024-03-02T05:50:12;2.90;99.90
34985;DHT22;21190;58.750;17.004;2024-03-02T05:52:39;2.90;99.90
34985;DHT22;21190;58.750;17.004;2024-03-02T05:55:06;2.90;99.90
34985;DHT22;21190;58.750;17.004;2024-03-02T05:57:34;2.90;99.90
34985;DHT22;21190;58.750;17.004;2024-03-02T06:00:10;2.90;99.90
34985;DHT22;21190;58.750;17.004;2024-03-02T06:02:41;2.90;99.90
34985;DHT22;21190;58.750;17.004;2024-03-02T06:05:08;2.90;99.90
34985;DHT22;21190;58.750;17.004;2024-03-02T06:07:35;2.90;99.90
34985;DHT22;21190;58.750;17.004;2024-03-02T06:10:03;2.90;99.90
34985;DHT22;21190;58.750;17.004;2024-03-02T06:12:31;2.90;99.90
34985;DHT22;21190;58.750;17.004;2024-03-02T06:14:59;3.00;99.90
34985;DHT22;21190;58.750;17.004;2024-03-02T06:17:26;3.00;99.90
34985;DHT22;21190;58.750;17.004;2024-03-02T06:19:54;3.00;99.90
34985;DHT22;21190;58.750;17.004;2024-03-02T06:22:21;3.00;99.90
34985;DHT22;21190;58.750;17.004;2024-03-02T06:24:50;3.00;99.90
34985;DHT22;21190;58.750;17.004;2024-03-02T06:27:17;3.00;99.90
34985;DHT22;21190;58.750;17.004;2024-03-02T06:29:44;3.10;99.90
34985;DHT22;21190;58.750;17.004;2024-03-02T06:32:11;3.10;99.90
34985;DHT22;21190;58.750;17.004;2024-03-02T06:34:38;3.00;99.90
34985;DHT22;21190;58.750;17.004;2024-03-02T06:37:05;3.00;99.90
34985;DHT22;21190;58.750;17.004;2024-03-02T06:39:33;3.00;99.90
34985;DHT22;21190;58.750;17.004;2024-03-02T06:42:01;3.10;99.90
34985;DHT22;21190;58.750;17.004;2024-03-02T06:44:28;3.00;99.90
34985;DHT22;21190;58.750;17.004;2024-03-02T06:46:55;3.10;99.90
34985;DHT22;21190;58.750;17.004;2024-03-02T06:49:22;3.00;99.90
34985;DHT22;21190;58.750;17.004;2024-03-02T06:51:50;3.10;99.90
34985;DHT22;21190;58.750;17.004;2024-03-02T06:54:17;3.10;99.90
34985;DHT22;21190;58.750;17.004;2024-03-02T06:56:44;3.10;99.90
34985;DHT22;21190;58.750;17.004;2024-03-02T06:59:11;3.20;99.90
34985;DHT22;21190;58.750;17.004;2024-03-02T07:01:39;3.20;99.90
34985;DHT22;21190;58.750;17.004;2024-03-02T07:04:06;3.20;99.90
34985;DHT22;21190;58.750;17.004;2024-03-02T07:06:33;3.20;99.90
34985;DHT22;21190;58.750;17.004;2024-03-02T07:09:00;3.20;99.90
34985;DHT22;21190;58.750;17.004;2024-03-02T07:11:27;3.20;99.90
34985;DHT22;21190;58.750;17.004;2024-03-02T07:13:55;3.20;99.90
34985;DHT22;21190;58.750;17.004;2024-03-02T07:16:22;3.20;99.90
34985;DHT22;21190;58.750;17.004;2024-03-02T07:18:56;3.20;99.90
34985;DHT22;21190;58.750;17.004;2024-03-02T07:21:24;3.20;99.90
34985;DHT22;21190;58.750;17.004;2024-03-02T07:23:51;3.30;99.90
34985;DHT22;21190;58.750;17.004;2024-03-02T07:26:18;3.30;99.90
34985;DHT22;21190;58.750;17.004;2024-03-02T07:28:49;3.30;99.90
34985;DHT22;21190;58.750;17.004;2024-03-02T07:31:16;3.30;99.90
34985;DHT22;21190;58.750;17.004;2024-03-02T07:33:44;3.30;99.90
34985;DHT22;21190;58.750;17.004;2024-03-02T07:36:13;3.30;99.90
34985;DHT22;21190;58.750;17.004;2024-03-02T07:38:40;3.30;99.90
34985;DHT22;21190;58.750;17.004;2024-03-02T07:41:08;3.20;99.90
34985;DHT22;21190;58.750;17.004;2024-03-02T07:43:35;3.30;99.90
34985;DHT22;21190;58.750;17.004;2024-03-02T07:46:03;3.30;99.90
34985;DHT22;21190;58.750;17.004;2024-03-02T07:48:30;3.20;99.90
34985;DHT22;21190;58.750;17.004;2024-03-02T07:50:58;3.20;99.90
34985;DHT22;21190;58.750;17.004;2024-03-02T07:53:25;3.20;99.90
34985;DHT22;21190;58.750;17.004;2024-03-02T07:55:52;3.30;99.90
34985;DHT22;21190;58.750;17.004;2024-03-02T07:58:20;3.20;99.90
34985;DHT22;21190;58.750;17.004;2024-03-02T08:00:47;3.30;99.90
34985;DHT22;21190;58.750;17.004;2024-03-02T08:03:17;3.20;99.90
34985;DHT22;21190;58.750;17.004;2024-03-02T08:05:44;3.20;99.90
34985;DHT22;21190;58.750;17.004;2024-03-02T08:08:11;3.30;99.90
34985;DHT22;21190;58.750;17.004;2024-03-02T08:10:38;3.30;99.90
34985;DHT22;21190;58.750;17.004;2024-03-02T08:13:06;3.30;99.90
34985;DHT22;21190;58.750;17.004;2024-03-02T08:15:33;3.30;99.90
34985;DHT22;21190;58.750;17.004;2024-03-02T08:18:00;3.30;99.90
34985;DHT22;21190;58.750;17.004;2024-03-02T08:20:27;3.40;99.90
34985;DHT22;21190;58.750;17.004;2024-03-02T08:22:54;3.40;99.90
34985;DHT22;21190;58.750;17.004;2024-03-02T08:25:22;3.40;99.90
34985;DHT22;21190;58.750;17.004;2024-03-02T08:27:49;3.40;99.90
34985;DHT22;21190;58.750;17.004;2024-03-02T08:30:16;3.40;99.90
34985;DHT22;21190;58.750;17.004;2024-03-02T08:32:45;3.40;99.90
34985;DHT22;21190;58.750;17.004;2024-03-02T08:35:14;3.50;99.90
34985;DHT22;21190;58.750;17.004;2024-03-02T08:37:42;3.40;99.90
34985;DHT22;21190;58.750;17.004;2024-03-02T08:40:10;3.50;99.90
34985;DHT22;21190;58.750;17.004;2024-03-02T08:42:42;3.50;99.90
34985;DHT22;21190;58.750;17.004;2024-03-02T08:45:09;3.60;99.90
34985;DHT22;21190;58.750;17.004;2024-03-02T08:47:36;3.60;99.90
34985;DHT22;21190;58.750;17.004;2024-03-02T08:50:04;3.60;99.90
34985;DHT22;21190;58.750;17.004;2024-03-02T08:52:31;3.60;99.90
34985;DHT22;21190;58.750;17.004;2024-03-02T08:54:58;3.60;99.90
34985;DHT22;21190;58.750;17.004;2024-03-02T08:57:26;3.70;99.90
34985;DHT22;21190;58.750;17.004;2024-03-02T08:59:53;3.70;99.90
34985;DHT22;21190;58.750;17.004;2024-03-02T09:02:20;3.70;99.90
34985;DHT22;21190;58.750;17.004;2024-03-02T09:04:49;3.70;99.90
34985;DHT22;21190;58.750;17.004;2024-03-02T09:07:16;3.70;99.90
34985;DHT22;21190;58.750;17.004;2024-03-02T09:09:43;3.70;99.90
34985;DHT22;21190;58.750;17.004;2024-03-02T09:12:11;3.70;99.90
34985;DHT22;21190;58.750;17.004;2024-03-02T09:14:38;3.70;99.90
34985;DHT22;21190;58.750;17.004;2024-03-02T09:17:05;3.70;99.90
34985;DHT22;21190;58.750;17.004;2024-03-02T09:19:32;3.70;99.90
34985;DHT22;21190;58.750;17.004;2024-03-02T09:21:59;3.70;99.90
34985;DHT22;21190;58.750;17.004;2024-03-02T09:24:29;3.70;99.90
34985;DHT22;21190;58.750;17.004;2024-03-02T09:26:56;3.70;99.90
34985;DHT22;21190;58.750;17.004;2024-03-02T09:29:23;3.70;99.90
34985;DHT22;21190;58.750;17.004;2024-03-02T09:31:50;3.70;99.90
34985;DHT22;21190;58.750;17.004;2024-03-02T09:34:18;3.70;99.90
34985;DHT22;21190;58.750;17.004;2024-03-02T09:36:45;3.60;99.90
34985;DHT22;21190;58.750;17.004;2024-03-02T09:39:12;3.60;99.90
34985;DHT22;21190;58.750;17.004;2024-03-02T09:41:40;3.60;99.90
34985;DHT22;21190;58.750;17.004;2024-03-02T09:44:07;3.60;99.90
34985;DHT22;21190;58.750;17.004;2024-03-02T09:46:35;3.60;99.90
34985;DHT22;21190;58.750;17.004;2024-03-02T09:49:03;3.60;99.90
34985;DHT22;21190;58.750;17.004;2024-03-02T09:51:31;3.60;99.90
34985;DHT22;21190;58.750;17.004;2024-03-02T09:54:01;3.60;99.90
34985;DHT22;21190;58.750;17.004;2024-03-02T09:56:44;3.60;99.90
34985;DHT22;21190;58.750;17.004;2024-03-02T09:59:11;3.60;99.90
34985;DHT22;21190;58.750;17.004;2024-03-02T10:01:40;3.70;99.90
34985;DHT22;21190;58.750;17.004;2024-03-02T10:04:22;3.60;99.90
34985;DHT22;21190;58.750;17.004;2024-03-02T10:06:50;3.60;99.90
34985;DHT22;21190;58.750;17.004;2024-03-02T10:09:27;3.60;99.90
34985;DHT22;21190;58.750;17.004;2024-03-02T10:12:04;3.70;99.90
34985;DHT22;21190;58.750;17.004;2024-03-02T10:14:32;3.70;99.90
34985;DHT22;21190;58.750;17.004;2024-03-02T10:19:31;3.60;99.90
34985;DHT22;21190;58.750;17.004;2024-03-02T10:22:03;3.70;99.90
34985;DHT22;21190;58.750;17.004;2024-03-02T10:24:41;3.70;99.90
34985;DHT22;21190;58.750;17.004;2024-03-02T10:27:10;3.60;99.90
34985;DHT22;21190;58.750;17.004;2024-03-02T10:29:39;3.60;99.90
34985;DHT22;21190;58.750;17.004;2024-03-02T10:32:10;3.70;99.90
34985;DHT22;21190;58.750;17.004;2024-03-02T10:34:41;3.60;99.90
34985;DHT22;21190;58.750;17.004;2024-03-02T10:37:10;3.60;99.90
34985;DHT22;21190;58.750;17.004;2024-03-02T10:39:37;3.60;99.90
34985;DHT22;21190;58.750;17.004;2024-03-02T10:42:09;3.60;99.90
34985;DHT22;21190;58.750;17.004;2024-03-02T10:44:36;3.60;99.90
34985;DHT22;21190;58.750;17.004;2024-03-02T10:47:05;3.60;99.90
34985;DHT22;21190;58.750;17.004;2024-03-02T10:49:33;3.60;99.90
34985;DHT22;21190;58.750;17.004;2024-03-02T10:52:00;3.60;99.90
34985;DHT22;21190;58.750;17.004;2024-03-02T10:54:28;3.60;99.90
34985;DHT22;21190;58.750;17.004;2024-03-02T10:57:04;3.50;99.90
34985;DHT22;21190;58.750;17.004;2024-03-02T10:59:37;3.60;99.90
34985;DHT22;21190;58.750;17.004;2024-03-02T11:02:12;3.50;99.90
34985;DHT22;21190;58.750;17.004;2024-03-02T11:04:40;3.50;99.90
34985;DHT22;21190;58.750;17.004;2024-03-02T11:07:10;3.60;99.90
34985;DHT22;21190;58.750;17.004;2024-03-02T11:09:49;3.60;99.90
34985;DHT22;21190;58.750;17.004;2024-03-02T11:12:23;3.50;99.90
34985;DHT22;21190;58.750;17.004;2024-03-02T11:14:55;3.50;99.90
34985;DHT22;21190;58.750;17.004;2024-03-02T11:17:24;3.50;99.90
34985;DHT22;21190;58.750;17.004;2024-03-02T11:19:52;3.50;99.90
34985;DHT22;21190;58.750;17.004;2024-03-02T11:22:20;3.50;99.90
34985;DHT22;21190;58.750;17.004;2024-03-02T11:24:48;3.50;99.90
34985;DHT22;21190;58.750;17.004;2024-03-02T11:33:02;3.50;99.90
34985;DHT22;21190;58.750;17.004;2024-03-02T11:35:42;3.50;99.90
34985;DHT22;21190;58.750;17.004;2024-03-02T11:38:10;3.50;99.90
34985;DHT22;21190;58.750;17.004;2024-03-02T11:40:39;3.60;99.90
34985;DHT22;21190;58.750;17.004;2024-03-02T11:43:07;3.60;99.90
34985;DHT22;21190;58.750;17.004;2024-03-02T11:45:36;3.60;99.90
34985;DHT22;21190;58.750;17.004;2024-03-02T11:48:08;3.60;99.90
34985;DHT22;21190;58.750;17.004;2024-03-02T11:50:47;3.60;99.90
34985;DHT22;21190;58.750;17.004;2024-03-02T11:53:16;3.60;99.90
34985;DHT22;21190;58.750;17.004;2024-03-02T11:55:44;3.60;99.90
34985;DHT22;21190;58.750;17.004;2024-03-02T11:58:16;3.70;99.90
34985;DHT22;21190;58.750;17.004;2024-03-02T12:00:54;3.60;99.90
34985;DHT22;21190;58.750;17.004;2024-03-02T12:03:23;3.70;99.90
34985;DHT22;21190;58.750;17.004;2024-03-02T12:05:53;3.70;99.90
34985;DHT22;21190;58.750;17.004;2024-03-02T12:08:21;3.80;99.90
34985;DHT22;21190;58.750;17.004;2024-03-02T12:11:01;3.70;99.90
34985;DHT22;21190;58.750;17.004;2024-03-02T12:13:30;3.70;99.90
34985;DHT22;21190;58.750;17.004;2024-03-02T12:15:58;3.70;99.90
34985;DHT22;21190;58.750;17.004;2024-03-02T12:18:26;3.80;99.90
34985;DHT22;21190;58.750;17.004;2024-03-02T12:20:54;3.80;99.90
34985;DHT22;21190;58.750;17.004;2024-03-02T12:23:25;3.90;99.90
34985;DHT22;21190;58.750;17.004;2024-03-02T12:25:52;3.90;99.90
34985;DHT22;21190;58.750;17.004;2024-03-02T12:28:20;3.90;99.90
34985;DHT22;21190;58.750;17.004;2024-03-02T12:30:47;3.80;99.90
34985;DHT22;21190;58.750;17.004;2024-03-02T12:33:18;3.80;99.90
34985;DHT22;21190;58.750;17.004;2024-03-02T12:35:49;3.80;99.90
34985;DHT22;21190;58.750;17.004;2024-03-02T12:38:16;3.80;99.90
34985;DHT22;21190;58.750;17.004;2024-03-02T12:40:44;3.90;99.90
34985;DHT22;21190;58.750;17.004;2024-03-02T12:43:11;3.90;99.90
34985;DHT22;21190;58.750;17.004;2024-03-02T12:45:38;3.80;99.90
34985;DHT22;21190;58.750;17.004;2024-03-02T12:48:06;3.90;99.90
34985;DHT22;21190;58.750;17.004;2024-03-02T12:50:33;3.90;99.90
34985;DHT22;21190;58.750;17.004;2024-03-02T12:53:01;3.80;99.90
34985;DHT22;21190;58.750;17.004;2024-03-02T12:55:30;3.90;99.90
34985;DHT22;21190;58.750;17.004;2024-03-02T12:57:57;3.80;99.90
34985;DHT22;21190;58.750;17.004;2024-03-02T13:00:26;3.80;99.90
34985;DHT22;21190;58.750;17.004;2024-03-02T13:02:53;3.80;99.90
34985;DHT22;21190;58.750;17.004;2024-03-02T13:05:21;3.80;99.90
34985;DHT22;21190;58.750;17.004;2024-03-02T13:07:48;3.80;99.90
34985;DHT22;21190;58.750;17.004;2024-03-02T13:10:16;3.80;99.90
34985;DHT22;21190;58.750;17.004;2024-03-02T13:12:45;3.80;99.90
34985;DHT22;21190;58.750;17.004;2024-03-02T13:15:13;3.80;99.90
34985;DHT22;21190;58.750;17.004;2024-03-02T13:17:45;3.80;99.90
34985;DHT22;21190;58.750;17.004;2024-03-02T13:20:13;3.80;99.90
34985;DHT22;21190;58.750;17.004;2024-03-02T13:22:41;3.80;99.90
34985;DHT22;21190;58.750;17.004;2024-03-02T13:25:09;3.80;99.90
34985;DHT22;21190;58.750;17.004;2024-03-02T13:27:39;3.70;99.90
34985;DHT22;21190;58.750;17.004;2024-03-02T13:30:06;3.70;99.90
34985;DHT22;21190;58.750;17.004;2024-03-02T13:32:36;3.70;99.90
34985;DHT22;21190;58.750;17.004;2024-03-02T13:35:04;3.60;99.90
34985;DHT22;21190;58.750;17.004;2024-03-02T13:37:32;3.60;99.90
34985;DHT22;21190;58.750;17.004;2024-03-02T13:39:59;3.60;99.90
34985;DHT22;21190;58.750;17.004;2024-03-02T13:42:26;3.60;99.90
34985;DHT22;21190;58.750;17.004;2024-03-02T13:44:54;3.60;99.90
34985;DHT22;21190;58.750;17.004;2024-03-02T13:47:22;3.60;99.90
34985;DHT22;21190;58.750;17.004;2024-03-02T13:49:49;3.50;99.90
34985;DHT22;21190;58.750;17.004;2024-03-02T13:52:16;3.60;99.90
34985;DHT22;21190;58.750;17.004;2024-03-02T13:54:45;3.60;99.90
34985;DHT22;21190;58.750;17.004;2024-03-02T13:57:13;3.60;99.90
34985;DHT22;21190;58.750;17.004;2024-03-02T13:59:42;3.60;99.90
34985;DHT22;21190;58.750;17.004;2024-03-02T14:02:11;3.50;99.90
34985;DHT22;21190;58.750;17.004;2024-03-02T14:04:39;3.50;99.90
34985;DHT22;21190;58.750;17.004;2024-03-02T14:07:06;3.60;99.90
34985;DHT22;21190;58.750;17.004;2024-03-02T14:09:35;3.50;99.90
34985;DHT22;21190;58.750;17.004;2024-03-02T14:12:04;3.50;99.90
34985;DHT22;21190;58.750;17.004;2024-03-02T14:14:32;3.60;99.90
34985;DHT22;21190;58.750;17.004;2024-03-02T14:17:00;3.50;99.90
34985;DHT22;21190;58.750;17.004;2024-03-02T14:19:30;3.50;99.90
34985;DHT22;21190;58.750;17.004;2024-03-02T14:21:58;3.50;99.90
34985;DHT22;21190;58.750;17.004;2024-03-02T14:24:26;3.50;99.90
34985;DHT22;21190;58.750;17.004;2024-03-02T14:26:55;3.50;99.90
34985;DHT22;21190;58.750;17.004;2024-03-02T14:29:36;3.50;99.90
34985;DHT22;21190;58.750;17.004;2024-03-02T14:32:05;3.50;99.90
34985;DHT22;21190;58.750;17.004;2024-03-02T14:34:33;3.50;99.90
34985;DHT22;21190;58.750;17.004;2024-03-02T14:37:02;3.50;99.90
34985;DHT22;21190;58.750;17.004;2024-03-02T14:39:30;3.60;99.90
34985;DHT22;21190;58.750;17.004;2024-03-02T14:42:02;3.60;99.90
34985;DHT22;21190;58.750;17.004;2024-03-02T14:44:29;3.60;99.90
34985;DHT22;21190;58.750;17.004;2024-03-02T14:46:56;3.60;99.90
34985;DHT22;21190;58.750;17.004;2024-03-02T14:49:26;3.50;99.90
34985;DHT22;21190;58.750;17.004;2024-03-02T14:51:53;3.60;99.90
34985;DHT22;21190;58.750;17.004;2024-03-02T14:54:21;3.50;99.90
34985;DHT22;21190;58.750;17.004;2024-03-02T14:56:48;3.50;99.90
34985;DHT22;21190;58.750;17.004;2024-03-02T14:59:16;3.40;99.90
34985;DHT22;21190;58.750;17.004;2024-03-02T15:01:44;3.40;99.90
34985;DHT22;21190;58.750;17.004;2024-03-02T15:04:12;3.40;99.90
34985;DHT22;21190;58.750;17.004;2024-03-02T15:06:39;3.40;99.90
34985;DHT22;21190;58.750;17.004;2024-03-02T15:09:06;3.40;99.90
34985;DHT22;21190;58.750;17.004;2024-03-02T15:11:35;3.40;99.90
34985;DHT22;21190;58.750;17.004;2024-03-02T15:14:02;3.40;99.90
34985;DHT22;21190;58.750;17.004;2024-03-02T15:16:29;3.40;99.90
34985;DHT22;21190;58.750;17.004;2024-03-02T15:18:57;3.30;99.90
34985;DHT22;21190;58.750;17.004;2024-03-02T15:21:24;3.30;99.90
34985;DHT22;21190;58.750;17.004;2024-03-02T15:23:51;3.30;99.90
34985;DHT22;21190;58.750;17.004;2024-03-02T15:26:18;3.30;99.90
34985;DHT22;21190;58.750;17.004;2024-03-02T15:28:45;3.30;99.90
34985;DHT22;21190;58.750;17.004;2024-03-02T15:31:12;3.30;99.90
34985;DHT22;21190;58.750;17.004;2024-03-02T15:33:40;3.30;99.90
34985;DHT22;21190;58.750;17.004;2024-03-02T15:36:07;3.40;99.90
34985;DHT22;21190;58.750;17.004;2024-03-02T15:38:35;3.40;99.90
34985;DHT22;21190;58.750;17.004;2024-03-02T15:41:08;3.40;99.90
34985;DHT22;21190;58.750;17.004;2024-03-02T15:43:35;3.50;99.90
34985;DHT22;21190;58.750;17.004;2024-03-02T15:46:06;3.50;99.90